Time;durP1;ratioP1;P1;durP2;ratioP2;P2;SDS_P1;SDS_P2;PMS_P1;PMS_P2;Temp;Humidity;BMP_temperature;BMP_pressure;BME280_temperature;BME280_humidity;BME280_pressure;Samples;Min_cycle;Max_cycle;Signal;HPM_P1;HPM_P2
2023/08/23 00:00:51;;;;;;;6.45;5.80;;;;;;;18.72;100.00;93467.94;2098574;28;20041;-84
2023/08/23 00:01:52;;;;;;;5.70;5.10;;;;;;;18.69;100.00;93463.44;2093258;28;20025;-82
2023/08/23 00:02:53;;;;;;;5.90;4.82;;;;;;;18.62;100.00;93469.94;2106832;28;20506;-82
2023/08/23 00:03:54;;;;;;;7.60;4.68;;;;;;;18.59;100.00;93470.09;2106885;28;20024;-82
2023/08/23 00:04:55;;;;;;;5.55;5.03;;;;;;;18.59;100.00;93464.69;2099145;28;20036;-83
2023/08/23 00:06:05;;;;;;;6.03;4.70;;;;;;;18.53;100.00;93459.16;2098669;28;20032;-83
2023/08/23 00:07:06;;;;;;;;;;;;;;;18.52;100.00;93465.00;2096454;28;20094;-82
2023/08/23 00:08:07;;;;;;;5.80;4.88;;;;;;;18.53;100.00;93461.84;2098311;28;19958;-83
2023/08/23 00:09:08;;;;;;;6.45;5.22;;;;;;;18.48;100.00;93454.38;2090707;28;20048;-83
2023/08/23 00:10:10;;;;;;;6.65;5.07;;;;;;;18.51;100.00;93466.22;2100702;28;20024;-83
2023/08/23 00:11:11;;;;;;;5.07;4.40;;;;;;;18.52;100.00;93462.28;2116002;28;20028;-83
2023/08/23 00:12:12;;;;;;;6.03;4.75;;;;;;;18.44;100.00;93464.59;2103895;28;20062;-82
2023/08/23 00:13:13;;;;;;;5.60;4.95;;;;;;;18.45;100.00;93463.38;2098568;28;20103;-82
2023/08/23 00:14:14;;;;;;;4.95;4.45;;;;;;;18.54;100.00;93471.47;2107084;28;20024;-83
2023/08/23 00:15:16;;;;;;;5.93;5.30;;;;;;;18.49;100.00;93461.28;2115845;28;20076;-83
2023/08/23 00:16:17;;;;;;;5.28;4.78;;;;;;;18.43;100.00;93468.50;2107099;28;20619;-83
2023/08/23 00:17:18;;;;;;;5.80;5.07;;;;;;;18.36;100.00;93464.19;2112264;28;20024;-84
2023/08/23 00:18:19;;;;;;;5.60;5.10;;;;;;;18.34;100.00;93460.41;2107566;28;20502;-82
2023/08/23 00:19:20;;;;;;;6.95;4.63;;;;;;;18.25;100.00;93455.78;2107494;28;20081;-84
2023/08/23 00:20:21;;;;;;;5.15;4.65;;;;;;;18.19;100.00;93462.28;2116060;27;20016;-82
2023/08/23 00:21:22;;;;;;;6.07;4.80;;;;;;;18.25;100.00;93458.50;2122287;27;20023;-82
2023/08/23 00:22:23;;;;;;;6.78;4.97;;;;;;;18.32;100.00;93462.84;2107575;28;20031;-84
2023/08/23 00:23:24;;;;;;;5.20;4.72;;;;;;;18.33;100.00;93459.66;2091364;28;20017;-83
2023/08/23 00:24:25;;;;;;;7.25;4.88;;;;;;;18.38;100.00;93461.00;2090093;28;20056;-83
2023/08/23 00:25:26;;;;;;;5.95;4.65;;;;;;;18.41;100.00;93464.75;2098549;28;20016;-83
2023/08/23 00:26:28;;;;;;;5.68;5.18;;;;;;;18.34;100.00;93452.28;2106672;28;20024;-83
2023/08/23 00:27:29;;;;;;;5.50;4.88;;;;;;;18.31;100.00;93459.38;2090915;28;20036;-82
2023/08/23 00:28:30;;;;;;;5.75;4.93;;;;;;;18.25;100.00;93453.06;2089855;28;20045;-83
2023/08/23 00:29:31;;;;;;;5.25;4.75;;;;;;;18.43;100.00;93463.09;2090036;28;20021;-83
2023/08/23 00:30:32;;;;;;;6.38;4.82;;;;;;;18.36;100.00;93458.00;2098439;28;20027;-83
2023/08/23 00:31:33;;;;;;;5.57;4.68;;;;;;;18.32;100.00;93460.13;2098375;28;20028;-83
2023/08/23 00:32:34;;;;;;;5.70;4.80;;;;;;;18.25;100.00;93458.50;2098093;28;20147;-83
2023/08/23 00:33:35;;;;;;;5.25;4.75;;;;;;;18.21;100.00;93460.59;2098281;28;20020;-81
2023/08/23 00:34:35;;;;;;;6.78;5.00;;;;;;;18.21;100.00;93459.84;2098118;28;20050;-83
2023/08/23 00:35:36;;;;;;;5.22;4.72;;;;;;;18.21;100.00;93457.91;2095638;28;20032;-82
2023/08/23 00:36:37;;;;;;;8.82;4.90;;;;;;;18.21;100.00;93451.75;2097600;28;20021;-83
2023/08/23 00:37:38;;;;;;;6.60;5.10;;;;;;;18.20;100.00;93461.81;2090140;28;20053;-82
2023/08/23 00:38:39;;;;;;;5.57;4.70;;;;;;;18.23;100.00;93455.50;2109858;28;20023;-82
2023/08/23 00:39:40;;;;;;;6.47;4.82;;;;;;;18.24;100.00;93461.66;2106530;28;20054;-84
2023/08/23 00:40:41;;;;;;;6.93;4.65;;;;;;;18.27;100.00;93456.09;2089971;28;20082;-84
2023/08/23 00:41:44;;;;;;;5.70;5.05;;;;;;;18.29;100.00;93450.97;2089466;28;20112;-84
2023/08/23 00:42:45;;;;;;;5.00;4.53;;;;;;;18.29;100.00;93447.50;2082088;28;20152;-82
2023/08/23 00:43:54;;;;;;;5.28;4.47;;;;;;;18.15;100.00;93446.22;2094245;28;20017;-83
2023/08/23 00:44:55;;;;;;;5.45;4.63;;;;;;;18.10;100.00;93444.88;2097917;28;20051;-82
2023/08/23 00:45:56;;;;;;;5.90;4.93;;;;;;;18.07;100.00;93451.19;2090044;28;20167;-83
2023/08/23 00:46:57;;;;;;;6.18;4.53;;;;;;;18.10;100.00;93447.56;2092957;28;20849;-83
2023/08/23 00:47:58;;;;;;;5.82;5.00;;;;;;;18.15;100.00;93445.47;2098513;28;20111;-84
2023/08/23 00:48:59;;;;;;;6.63;4.78;;;;;;;18.18;100.00;93441.84;2112701;28;20503;-82
2023/08/23 00:50:01;;;;;;;6.60;4.85;;;;;;;18.21;100.00;93441.66;2106157;28;20062;-82
2023/08/23 00:51:02;;;;;;;8.60;5.40;;;;;;;18.25;100.00;93446.91;2098357;28;20412;-83
2023/08/23 00:52:44;;;;;;;6.85;4.78;;;;;;;18.21;100.00;93452.50;2089746;28;20025;-82
2023/08/23 00:53:46;;;;;;;7.93;4.55;;;;;;;18.29;100.00;93445.53;2106563;28;20446;-83
2023/08/23 00:54:47;;;;;;;9.02;4.78;;;;;;;18.34;100.00;93447.63;2106749;28;20032;-83
2023/08/23 00:55:48;;;;;;;8.18;5.03;;;;;;;18.23;100.00;93452.78;2106078;28;20035;-83
2023/08/23 00:56:50;;;;;;;6.65;4.75;;;;;;;18.15;100.00;93454.31;2099845;28;20067;-82
2023/08/23 00:57:52;;;;;;;5.60;4.55;;;;;;;17.99;100.00;93450.00;2114890;28;20057;-83
2023/08/23 00:58:53;;;;;;;7.45;5.05;;;;;;;18.04;100.00;93451.34;2113591;27;20020;-82
2023/08/23 00:59:54;;;;;;;5.45;4.45;;;;;;;18.07;100.00;93453.13;2106450;28;20063;-83
2023/08/23 01:00:56;;;;;;;7.10;5.40;;;;;;;18.10;100.00;93452.25;2097576;28;20048;-83
2023/08/23 01:01:57;;;;;;;5.45;4.95;;;;;;;18.07;100.00;93456.59;2097556;28;20092;-83
2023/08/23 01:02:59;;;;;;;7.88;5.00;;;;;;;17.97;100.00;93465.19;2089223;28;20025;-84
2023/08/23 01:04:00;;;;;;;7.20;4.85;;;;;;;17.97;100.00;93455.13;2095650;28;20033;-82
2023/08/23 01:05:08;;;;;;;5.95;4.95;;;;;;;17.95;100.00;93454.81;2089649;28;20488;-84
2023/08/23 01:06:23;;;;;;;6.28;4.32;;;;;;;18.03;100.00;93457.97;2108447;27;20023;-83
2023/08/23 01:07:34;;;;;;;5.80;5.25;;;;;;;18.08;100.00;93451.94;2103898;28;20053;-83
2023/08/23 01:09:06;;;;;;;5.72;5.20;;;;;;;18.04;100.00;93446.69;2103198;27;20035;-83
2023/08/23 01:10:17;;;;;;;6.55;5.00;;;;;;;18.09;100.00;93437.97;2104377;28;20058;-82
2023/08/23 01:11:32;;;;;;;5.13;4.63;;;;;;;18.11;100.00;93448.31;2099836;28;20047;-83
2023/08/23 01:12:40;;;;;;;7.70;4.90;;;;;;;18.16;100.00;93445.00;2106818;28;20047;-82
2023/08/23 01:14:04;;;;;;;6.78;4.70;;;;;;;18.08;100.00;93454.63;2098797;28;20099;-83
2023/08/23 01:17:03;;;;;;;6.00;5.18;;;;;;;18.07;100.00;93448.47;2109716;28;20106;-83
2023/08/23 01:18:05;;;;;;;6.22;5.00;;;;;;;18.08;100.00;93441.84;2114686;28;20026;-83
2023/08/23 01:19:41;;;;;;;7.07;5.32;;;;;;;18.10;100.00;93444.88;2107987;28;20114;-83
2023/08/23 01:20:48;;;;;;;8.25;4.80;;;;;;;18.24;100.00;93442.72;2110070;28;20046;-82
2023/08/23 01:21:55;;;;;;;6.75;5.05;;;;;;;18.16;100.00;93442.28;2097417;28;20412;-83
2023/08/23 01:23:11;;;;;;;8.60;5.38;;;;;;;18.06;100.00;93448.94;2091185;28;20936;-82
2023/08/23 01:24:12;;;;;;;5.68;5.03;;;;;;;18.14;100.00;93439.31;2099820;28;20025;-83
2023/08/23 01:25:14;;;;;;;6.85;4.78;;;;;;;18.06;100.00;93441.56;2100324;28;20016;-84
2023/08/23 01:26:15;;;;;;;7.38;5.13;;;;;;;18.08;100.00;93446.50;2106336;28;20024;-82
2023/08/23 01:27:16;;;;;;;8.50;5.10;;;;;;;18.07;100.00;93443.06;2097707;28;20116;-83
2023/08/23 01:28:19;;;;;;;6.78;5.13;;;;;;;18.04;100.00;93445.91;2097600;28;20066;-83
2023/08/23 01:29:20;;;;;;;6.60;5.20;;;;;;;18.00;100.00;93446.09;2113818;28;20059;-83
2023/08/23 01:30:23;;;;;;;6.95;5.15;;;;;;;18.00;100.00;93443.41;2105903;28;20024;-82
2023/08/23 01:31:24;;;;;;;5.85;5.03;;;;;;;18.02;100.00;93446.38;2106461;28;20035;-82
2023/08/23 01:33:02;;;;;;;5.47;4.40;;;;;;;17.91;100.00;93438.03;2106160;28;20051;-82
2023/08/23 01:34:23;;;;;;;6.75;4.85;;;;;;;17.84;100.00;93441.03;2094398;28;20149;-84
2023/08/23 01:35:45;;;;;;;6.25;4.85;;;;;;;17.74;100.00;93434.16;2086520;28;20033;-83
2023/08/23 01:36:49;;;;;;;5.45;4.95;;;;;;;17.75;100.00;93438.34;2097631;28;20472;-82
2023/08/23 01:37:54;;;;;;;6.82;5.07;;;;;;;17.80;100.00;93437.72;2106181;28;20039;-82
2023/08/23 01:38:57;;;;;;;10.40;5.38;;;;;;;17.92;100.00;93439.50;2106381;28;20451;-82
2023/08/23 01:40:01;;;;;;;5.15;4.65;;;;;;;17.83;100.00;93439.53;2115091;27;20035;-82
2023/08/23 01:41:03;;;;;;;6.90;4.45;;;;;;;17.84;100.00;93438.31;2114348;28;20069;-82
2023/08/23 01:42:05;;;;;;;5.97;4.45;;;;;;;17.80;100.00;93435.03;2110538;28;20020;-82
2023/08/23 01:43:06;;;;;;;10.23;4.60;;;;;;;17.74;100.00;93440.31;2106025;28;20050;-82
2023/08/23 01:44:07;;;;;;;6.65;4.82;;;;;;;17.75;100.00;93441.78;2106021;28;20036;-82
2023/08/23 01:45:09;;;;;;;5.32;4.82;;;;;;;17.80;100.00;93445.84;2106626;28;20036;-82
2023/08/23 01:46:10;;;;;;;7.18;5.32;;;;;;;17.73;100.00;93443.41;2114380;28;20122;-83
2023/08/23 01:47:11;;;;;;;6.70;5.13;;;;;;;17.78;100.00;93440.91;2112605;28;20031;-83
2023/08/23 01:48:12;;;;;;;5.35;4.80;;;;;;;17.86;100.00;93441.31;2114511;28;20055;-82
2023/08/23 01:49:13;;;;;;;6.35;4.85;;;;;;;17.83;100.00;93434.88;2091749;28;20025;-83
2023/08/23 01:50:14;;;;;;;8.52;4.90;;;;;;;17.74;100.00;93444.97;2089515;28;20021;-83
2023/08/23 01:51:15;;;;;;;5.78;5.00;;;;;;;17.77;100.00;93439.38;2097637;28;20020;-82
2023/08/23 01:52:15;;;;;;;5.53;4.60;;;;;;;17.80;100.00;93443.13;2100894;28;20109;-83
2023/08/23 01:53:16;;;;;;;7.15;4.97;;;;;;;17.77;100.00;93442.09;2114519;28;20027;-83
2023/08/23 01:54:17;;;;;;;6.53;5.13;;;;;;;17.75;100.00;93449.91;2099393;28;20524;-83
2023/08/23 01:55:20;;;;;;;6.07;5.28;;;;;;;17.80;100.00;93443.88;2090505;28;20429;-84
2023/08/23 01:56:22;;;;;;;6.10;5.00;;;;;;;17.81;100.00;93448.09;2097502;28;20357;-82
2023/08/23 01:57:23;;;;;;;5.50;4.93;;;;;;;17.78;100.00;93440.91;2093344;28;20413;-82
2023/08/23 01:58:25;;;;;;;6.82;4.80;;;;;;;17.78;100.00;93443.59;2103818;28;20058;-82
2023/08/23 01:59:26;;;;;;;8.48;5.05;;;;;;;17.73;100.00;93443.41;2105109;28;20086;-83
2023/08/23 02:02:24;;;;;;;6.13;4.90;;;;;;;17.77;100.00;93446.75;2106254;28;20042;-84
2023/08/23 02:03:25;;;;;;;5.10;4.57;;;;;;;17.77;100.00;93444.78;2108904;28;20031;-83
2023/08/23 02:04:26;;;;;;;5.00;4.47;;;;;;;17.73;100.00;93443.41;2106709;28;20028;-81
2023/08/23 02:05:30;;;;;;;5.32;4.57;;;;;;;17.68;100.00;93439.38;2099396;28;20078;-82
2023/08/23 02:06:31;;;;;;;10.30;4.85;;;;;;;17.73;100.00;93438.75;2089759;28;20021;-83
2023/08/23 02:07:33;;;;;;;8.00;4.97;;;;;;;17.79;100.00;93438.94;2086141;28;20381;-82
2023/08/23 02:08:35;;;;;;;5.65;4.72;;;;;;;17.80;100.00;93437.72;2097565;28;20031;-83
2023/08/23 02:09:36;;;;;;;5.50;4.85;;;;;;;17.80;100.00;93440.44;2106002;28;20527;-81
2023/08/23 02:10:37;;;;;;;5.80;5.18;;;;;;;17.81;100.00;93436.53;2098181;28;20016;-83
2023/08/23 02:11:38;;;;;;;8.80;5.07;;;;;;;17.77;100.00;93433.22;2105848;28;20466;-83
2023/08/23 02:12:40;;;;;;;5.20;4.80;;;;;;;17.67;100.00;93434.41;2107639;28;20055;-81
2023/08/23 02:13:41;;;;;;;5.70;4.57;;;;;;;17.63;100.00;93432.63;2097395;28;20024;-82
2023/08/23 02:14:42;;;;;;;6.93;4.30;;;;;;;17.73;100.00;93432.59;2089269;28;20028;-82
2023/08/23 02:15:43;;;;;;;5.57;5.07;;;;;;;17.76;100.00;93435.19;2105140;28;20020;-82
2023/08/23 02:16:44;;;;;;;5.53;4.88;;;;;;;17.77;100.00;93436.66;2106753;28;20051;-83
2023/08/23 02:17:45;;;;;;;5.88;5.32;;;;;;;17.74;100.00;93428.75;2105756;28;20390;-82
2023/08/23 02:18:46;;;;;;;4.85;4.45;;;;;;;17.79;100.00;93431.56;2097262;28;20477;-84
2023/08/23 02:19:47;;;;;;;6.88;4.80;;;;;;;17.82;100.00;93427.97;2105857;28;20024;-82
2023/08/23 02:20:58;;;;;;;5.00;4.53;;;;;;;17.70;100.00;93430.81;2093833;28;20051;-83
2023/08/23 02:22:01;;;;;;;5.30;4.75;;;;;;;17.66;100.00;93424.81;2090943;28;20036;-83
2023/08/23 02:23:02;;;;;;;6.18;5.47;;;;;;;17.52;100.00;93432.34;2081340;28;20025;-82
2023/08/23 02:24:17;;;;;;;5.50;4.97;;;;;;;17.63;100.00;93432.63;2084780;28;20116;-82
2023/08/23 02:25:18;;;;;;;6.22;4.65;;;;;;;17.59;100.00;93432.00;2107568;28;20024;-83
2023/08/23 02:26:19;;;;;;;5.57;4.50;;;;;;;17.60;100.00;93430.06;2097452;28;20024;-82
2023/08/23 02:27:19;;;;;;;4.90;4.40;;;;;;;17.62;100.00;93428.41;2092518;28;20113;-82
2023/08/23 02:28:38;;;;;;;6.45;4.72;;;;;;;17.65;100.00;93424.06;2105251;28;20491;-83
2023/08/23 02:29:39;;;;;;;5.95;4.60;;;;;;;17.60;100.00;93422.72;2099876;28;20029;-84
2023/08/23 02:30:41;;;;;;;6.03;4.72;;;;;;;17.71;100.00;93424.19;2093946;28;20024;-85
2023/08/23 02:31:42;;;;;;;5.13;4.60;;;;;;;17.55;100.00;93419.88;2092799;28;20075;-82
2023/08/23 02:32:42;;;;;;;5.78;4.47;;;;;;;17.56;100.00;93422.13;2097244;28;20020;-83
2023/08/23 02:33:43;;;;;;;6.82;4.53;;;;;;;17.64;100.00;93419.84;2104479;28;20166;-82
2023/08/23 02:34:44;;;;;;;6.18;5.03;;;;;;;17.58;100.00;93425.13;2097507;28;20441;-84
2023/08/23 02:35:46;;;;;;;6.57;4.88;;;;;;;17.56;100.00;93418.66;2101260;28;20234;-82
2023/08/23 02:36:47;;;;;;;7.80;4.70;;;;;;;17.59;100.00;93423.91;2097701;28;20100;-82
2023/08/23 02:37:48;;;;;;;10.45;5.03;;;;;;;17.67;100.00;93421.66;2092825;28;20039;-83
2023/08/23 02:38:49;;;;;;;7.10;4.78;;;;;;;17.67;100.00;93420.91;2088637;28;20116;-81
2023/08/23 02:39:50;;;;;;;5.15;4.75;;;;;;;17.68;100.00;93417.75;2080836;28;20053;-83
2023/08/23 02:40:54;;;;;;;6.28;4.97;;;;;;;17.68;100.00;93423.16;2100624;28;20012;-83
2023/08/23 02:41:55;;;;;;;5.20;4.70;;;;;;;17.61;100.00;93426.94;2103683;28;20031;-83
2023/08/23 02:42:56;;;;;;;6.10;5.00;;;;;;;17.63;100.00;93432.63;2087665;28;20903;-83
2023/08/23 02:43:57;;;;;;;7.55;4.70;;;;;;;17.71;100.00;93426.91;2089008;28;20032;-82
2023/08/23 02:44:59;;;;;;;5.32;4.82;;;;;;;17.79;100.00;93436.25;2097432;28;20020;-84
2023/08/23 02:45:59;;;;;;;6.00;4.55;;;;;;;17.74;100.00;93431.44;2104360;28;20042;-83
2023/08/23 02:47:00;;;;;;;6.10;4.60;;;;;;;17.75;100.00;93435.63;2097644;28;20117;-83
2023/08/23 02:48:02;;;;;;;5.43;4.80;;;;;;;17.69;100.00;93429.28;2096940;28;20024;-83
2023/08/23 02:49:03;;;;;;;9.30;4.47;;;;;;;17.57;100.00;93434.44;2102574;28;20028;-83
2023/08/23 02:50:04;;;;;;;7.30;5.03;;;;;;;17.50;100.00;93434.72;2089029;28;20029;-82
2023/08/23 02:51:06;;;;;;;6.53;4.65;;;;;;;17.52;100.00;93434.31;2090617;28;20029;-82
2023/08/23 02:52:07;;;;;;;7.90;4.93;;;;;;;17.43;100.00;93429.66;2097328;28;20074;-82
2023/08/23 02:53:09;;;;;;;5.28;4.85;;;;;;;17.49;100.00;93441.34;2089244;28;20033;-82
2023/08/23 02:54:10;;;;;;;7.57;4.65;;;;;;;17.56;100.00;93438.34;2080926;28;20080;-83
2023/08/23 02:55:11;;;;;;;8.30;4.28;;;;;;;17.58;100.00;93438.63;2080768;28;20025;-82
2023/08/23 02:56:12;;;;;;;5.15;4.65;;;;;;;17.65;100.00;93444.91;2094985;28;20025;-83
2023/08/23 02:57:13;;;;;;;6.90;4.80;;;;;;;17.53;100.00;93444.66;2097766;28;20460;-83
2023/08/23 02:58:14;;;;;;;5.43;4.60;;;;;;;17.39;100.00;93437.16;2097523;28;20473;-83
2023/08/23 02:59:15;;;;;;;6.15;4.63;;;;;;;17.28;100.00;93434.91;2092585;28;20447;-83
2023/08/23 03:00:16;;;;;;;8.38;4.43;;;;;;;17.24;100.00;93436.25;2097291;28;20144;-83
2023/08/23 03:01:17;;;;;;;5.72;4.60;;;;;;;17.39;100.00;93436.41;2104034;28;20028;-82
2023/08/23 03:02:19;;;;;;;5.38;4.80;;;;;;;17.40;100.00;93429.81;2097308;28;20025;-83
2023/08/23 03:03:20;;;;;;;5.80;5.20;;;;;;;17.42;100.00;93430.09;2103146;28;20059;-82
2023/08/23 03:04:21;;;;;;;4.85;4.45;;;;;;;17.39;100.00;93433.72;2097114;28;20032;-83
2023/08/23 03:05:57;;;;;;;5.45;4.90;;;;;;;17.40;100.00;93424.41;2088960;28;20442;-83
2023/08/23 03:06:58;;;;;;;5.70;4.70;;;;;;;17.36;100.00;93433.41;2090467;28;20443;-82
2023/08/23 03:07:59;;;;;;;5.18;4.68;;;;;;;17.36;100.00;93432.66;2080543;28;20018;-83
2023/08/23 03:09:00;;;;;;;6.57;4.90;;;;;;;17.39;100.00;93431.75;2082427;28;20382;-83
2023/08/23 03:10:01;;;;;;;5.75;4.55;;;;;;;17.33;100.00;93426.19;2088872;28;20112;-82
2023/08/23 03:11:04;;;;;;;6.20;4.80;;;;;;;17.40;100.00;93427.84;2096193;28;20032;-82
2023/08/23 03:12:05;;;;;;;6.88;4.55;;;;;;;17.32;100.00;93432.78;2097793;28;20026;-83
2023/08/23 03:13:06;;;;;;;7.88;4.68;;;;;;;17.38;100.00;93427.53;2089093;28;20021;-82
2023/08/23 03:14:32;;;;;;;5.30;4.55;;;;;;;17.42;100.00;93427.38;2099898;28;20187;-83
2023/08/23 03:15:52;;;;;;;6.80;4.80;;;;;;;17.51;100.00;93424.66;2113577;28;20045;-83
2023/08/23 03:16:57;;;;;;;5.20;4.70;;;;;;;17.50;100.00;93423.91;2105703;28;20495;-83
2023/08/23 03:17:58;;;;;;;6.53;4.45;;;;;;;17.52;100.00;93416.13;2097665;28;20118;-82
2023/08/23 03:18:59;;;;;;;6.45;5.00;;;;;;;17.55;100.00;93419.88;2105481;28;20085;-83
2023/08/23 03:20:16;;;;;;;5.35;4.75;;;;;;;17.55;100.00;93415.19;2107046;28;20036;-82
2023/08/23 03:21:17;;;;;;;5.78;4.40;;;;;;;17.52;100.00;93426.94;2098157;28;20028;-82
2023/08/23 03:22:18;;;;;;;5.20;4.80;;;;;;;17.49;100.00;93419.72;2080570;28;20075;-83
2023/08/23 03:23:20;;;;;;;5.47;4.95;;;;;;;17.50;100.00;93421.22;2089152;28;20036;-82
2023/08/23 03:24:21;;;;;;;8.18;4.63;;;;;;;17.41;100.00;93417.78;2093525;28;20047;-83
2023/08/23 03:25:22;;;;;;;5.43;4.90;;;;;;;17.40;100.00;93419.75;2097290;28;20493;-82
2023/08/23 03:26:23;;;;;;;5.30;4.63;;;;;;;17.35;100.00;93414.94;2106058;28;20062;-84
2023/08/23 03:27:25;;;;;;;6.40;4.65;;;;;;;17.51;100.00;93419.25;2098593;28;20025;-82
2023/08/23 03:28:26;;;;;;;7.28;4.35;;;;;;;17.70;100.00;93422.72;2098922;28;20024;-83
2023/08/23 03:29:27;;;;;;;5.40;4.80;;;;;;;17.69;100.00;93421.19;2094118;28;20039;-82
2023/08/23 03:30:51;;;;;;;5.40;4.80;;;;;;;17.64;100.00;93419.84;2107071;28;20024;-81
2023/08/23 03:31:52;;;;;;;5.22;4.72;;;;;;;17.66;100.00;93414.75;2107218;28;20500;-82
2023/08/23 03:32:53;;;;;;;5.85;5.15;;;;;;;17.65;100.00;93415.19;2098834;28;20024;-83
2023/08/23 03:33:54;;;;;;;5.38;4.90;;;;;;;17.68;100.00;93411.59;2107182;28;20066;-81
2023/08/23 03:34:55;;;;;;;5.47;4.97;;;;;;;17.74;100.00;93420.63;2107225;28;20436;-82
2023/08/23 03:35:56;;;;;;;5.80;5.00;;;;;;;17.84;100.00;93420.13;2102213;28;20074;-82
2023/08/23 03:36:57;;;;;;;5.75;5.18;;;;;;;17.85;100.00;93418.19;2098779;28;20059;-82
2023/08/23 03:37:58;;;;;;;8.68;5.50;;;;;;;17.88;100.00;93416.53;2108795;28;20031;-83
2023/08/23 03:38:59;;;;;;;5.65;5.10;;;;;;;17.86;100.00;93406.16;2098418;28;20610;-83
2023/08/23 03:39:59;;;;;;;7.28;5.28;;;;;;;17.91;100.00;93407.50;2098833;28;20024;-82
2023/08/23 03:41:00;;;;;;;5.95;5.35;;;;;;;17.96;100.00;93399.53;2105858;28;20027;-83
2023/08/23 03:42:02;;;;;;;5.47;4.97;;;;;;;18.02;100.00;93402.34;2090430;28;20029;-83
2023/08/23 03:43:03;;;;;;;6.97;4.97;;;;;;;18.08;100.00;93400.53;2106221;28;20087;-83
2023/08/23 03:44:04;;;;;;;6.80;5.00;;;;;;;18.01;100.00;93407.03;2115546;27;20055;-81
2023/08/23 03:45:05;;;;;;;5.72;5.15;;;;;;;17.90;100.00;93404.03;2099048;28;20102;-81
2023/08/23 03:46:06;;;;;;;6.82;5.25;;;;;;;17.81;100.00;93404.06;2090624;28;20047;-82
2023/08/23 03:47:08;;;;;;;6.10;5.10;;;;;;;17.75;100.00;93395.81;2098963;28;20032;-82
2023/08/23 03:48:09;;;;;;;8.07;5.32;;;;;;;17.67;100.00;93399.28;2107131;28;20024;-81
2023/08/23 03:49:10;;;;;;;6.88;5.45;;;;;;;17.69;100.00;93403.03;2107187;28;20028;-82
2023/08/23 03:50:12;;;;;;;6.20;4.72;;;;;;;17.76;100.00;93401.97;2107381;28;20066;-83
2023/08/23 03:51:13;;;;;;;5.47;4.82;;;;;;;17.80;100.00;93408.72;2099012;28;20016;-83
2023/08/23 03:52:14;;;;;;;5.82;5.20;;;;;;;17.77;100.00;93403.47;2107775;28;20024;-82
2023/08/23 03:53:15;;;;;;;7.22;5.00;;;;;;;17.74;100.00;93404.41;2107455;28;20020;-82
2023/08/23 03:54:19;;;;;;;6.28;4.95;;;;;;;17.75;100.00;93403.19;2090715;28;20493;-82
2023/08/23 03:55:20;;;;;;;5.95;5.35;;;;;;;17.78;100.00;93411.16;2092126;28;20029;-82
2023/08/23 03:56:21;;;;;;;6.28;4.80;;;;;;;17.73;100.00;93408.25;2098936;28;20404;-82
2023/08/23 03:57:22;;;;;;;5.90;5.40;;;;;;;17.80;100.00;93399.88;2090190;28;20135;-81
2023/08/23 03:58:23;;;;;;;5.20;4.70;;;;;;;17.88;100.00;93403.00;2114321;28;20522;-82
2023/08/23 03:59:23;;;;;;;6.55;4.70;;;;;;;17.92;100.00;93407.06;2105832;28;20009;-82
2023/08/23 04:00:24;;;;;;;9.88;5.10;;;;;;;17.82;100.00;93406.34;2108243;28;20091;-82
2023/08/23 04:01:26;;;;;;;4.97;4.57;;;;;;;17.81;100.00;93407.53;2113203;28;20012;-82
2023/08/23 04:03:02;;;;;;;5.43;4.55;;;;;;;17.83;100.00;93401.69;2110213;28;20033;-83
2023/08/23 04:04:03;;;;;;;5.53;4.93;;;;;;;17.83;100.00;93399.72;2120155;28;20011;-83
2023/08/23 04:05:11;;;;;;;6.78;4.65;;;;;;;17.89;100.00;93402.56;2121125;28;20181;-82
2023/08/23 04:06:12;;;;;;;5.05;4.55;;;;;;;17.94;100.00;93401.94;2108236;28;20051;-84
2023/08/23 04:07:15;;;;;;;5.82;4.43;;;;;;;17.91;100.00;93407.50;2085267;28;20018;-82
2023/08/23 04:08:16;;;;;;;5.22;4.70;;;;;;;17.95;100.00;93408.09;2090966;28;20027;-83
2023/08/23 04:09:17;;;;;;;6.25;4.13;;;;;;;18.01;100.00;93401.63;2102460;28;20020;-82
2023/08/23 04:10:18;;;;;;;4.95;4.55;;;;;;;17.96;100.00;93410.34;2107536;28;20058;-82
2023/08/23 04:11:22;;;;;;;5.25;4.75;;;;;;;17.86;100.00;93408.84;2106861;28;20031;-83
2023/08/23 04:12:23;;;;;;;6.25;5.00;;;;;;;17.88;100.00;93405.72;2107122;28;20069;-82
2023/08/23 04:13:24;;;;;;;7.85;4.75;;;;;;;17.82;100.00;93408.25;2106778;28;20469;-81
2023/08/23 04:14:25;;;;;;;7.03;4.55;;;;;;;17.88;100.00;93405.72;2102998;28;20031;-83
2023/08/23 04:15:27;;;;;;;5.72;5.22;;;;;;;17.99;100.00;93409.41;2090406;28;20053;-82
2023/08/23 04:16:28;;;;;;;6.00;5.07;;;;;;;17.93;100.00;93408.53;2098097;28;20025;-82
2023/08/23 04:17:29;;;;;;;5.15;4.70;;;;;;;17.89;100.00;93399.84;2101448;28;20028;-82
2023/08/23 04:18:30;;;;;;;7.15;4.63;;;;;;;17.79;100.00;93404.53;2115405;28;20023;-82
2023/08/23 04:19:31;;;;;;;5.28;4.50;;;;;;;17.96;100.00;93402.25;2115839;28;20024;-81
2023/08/23 04:20:32;;;;;;;5.72;4.68;;;;;;;18.00;100.00;93405.53;2115235;28;20074;-82
2023/08/23 04:21:32;;;;;;;5.97;4.85;;;;;;;17.99;100.00;93405.97;2106820;28;20099;-81
2023/08/23 04:22:33;;;;;;;5.50;5.00;;;;;;;17.87;100.00;93399.56;2109575;28;20024;-82
2023/08/23 04:23:34;;;;;;;5.53;4.97;;;;;;;17.86;100.00;93406.16;2115016;28;20048;-82
2023/08/23 04:24:35;;;;;;;7.35;4.90;;;;;;;17.81;100.00;93398.66;2106836;28;20016;-82
2023/08/23 04:25:36;;;;;;;7.80;4.90;;;;;;;17.78;100.00;93405.75;2098223;28;20020;-81
2023/08/23 04:26:44;;;;;;;4.97;4.55;;;;;;;17.86;100.00;93398.78;2098353;28;20055;-82
2023/08/23 04:27:45;;;;;;;5.50;4.57;;;;;;;17.91;100.00;93396.69;2100177;28;20016;-83
2023/08/23 04:28:47;;;;;;;6.13;4.57;;;;;;;17.94;100.00;93401.94;2106195;28;20091;-81
2023/08/23 04:29:48;;;;;;;5.90;5.00;;;;;;;17.97;100.00;93411.09;2106565;28;20024;-83
2023/08/23 04:30:49;;;;;;;5.60;5.10;;;;;;;17.95;100.00;93408.09;2114819;28;20032;-82
2023/08/23 04:31:50;;;;;;;8.52;5.00;;;;;;;17.98;100.00;93407.19;2107426;28;20024;-82
2023/08/23 04:32:51;;;;;;;5.10;4.60;;;;;;;17.95;100.00;93403.41;2102871;28;20050;-81
2023/08/23 04:33:53;;;;;;;5.45;4.70;;;;;;;17.92;100.00;93409.75;2098220;28;20021;-82
2023/08/23 04:34:55;;;;;;;5.10;4.63;;;;;;;17.96;100.00;93417.72;2104683;28;20527;-83
2023/08/23 04:35:56;;;;;;;9.43;4.72;;;;;;;18.02;100.00;93416.63;2085793;28;20026;-82
2023/08/23 04:36:57;;;;;;;5.88;5.13;;;;;;;18.01;100.00;93415.13;2098227;28;20091;-82
2023/08/23 04:37:58;;;;;;;6.32;4.70;;;;;;;17.94;100.00;93428.97;2099994;28;20487;-81
2023/08/23 04:38:59;;;;;;;5.65;4.65;;;;;;;17.80;100.00;93419.53;2098401;28;20518;-82
2023/08/23 04:40:00;;;;;;;5.18;4.43;;;;;;;17.80;100.00;93419.53;2098112;28;20062;-82
2023/08/23 04:41:02;;;;;;;5.07;4.60;;;;;;;17.75;100.00;93422.13;2106427;28;20111;-82
2023/08/23 04:42:04;;;;;;;7.75;4.80;;;;;;;17.76;100.00;93418.22;2109796;28;20023;-82
2023/08/23 04:43:04;;;;;;;5.50;4.85;;;;;;;17.76;100.00;93424.34;2100352;28;20116;-82
2023/08/23 04:44:05;;;;;;;5.03;4.53;;;;;;;17.73;100.00;93421.78;2106484;28;20431;-83
2023/08/23 04:45:07;;;;;;;5.75;4.70;;;;;;;17.75;100.00;93427.53;2123231;27;20104;-83
2023/08/23 04:46:08;;;;;;;6.80;4.65;;;;;;;17.71;100.00;93422.25;2114709;28;20028;-82
2023/08/23 04:47:14;;;;;;;6.30;4.97;;;;;;;17.77;100.00;93427.81;2106575;28;20110;-82
2023/08/23 04:48:15;;;;;;;6.88;5.03;;;;;;;17.77;100.00;93419.69;2098102;28;20475;-84
2023/08/23 04:49:16;;;;;;;5.70;4.97;;;;;;;17.70;100.00;93431.56;2100033;28;20025;-83
2023/08/23 04:50:17;;;;;;;6.10;4.53;;;;;;;17.70;100.00;93422.72;2098256;28;20052;-82
2023/08/23 04:51:18;;;;;;;5.55;4.78;;;;;;;17.67;100.00;93426.31;2094706;28;20024;-82
2023/08/23 04:52:19;;;;;;;8.65;5.00;;;;;;;17.63;100.00;93429.91;2106622;28;20060;-83
2023/08/23 04:53:20;;;;;;;5.78;4.70;;;;;;;17.67;100.00;93429.00;2106313;28;20031;-82
2023/08/23 04:54:21;;;;;;;6.90;5.03;;;;;;;17.70;100.00;93422.72;2100600;28;20048;-82
2023/08/23 04:55:22;;;;;;;6.85;4.72;;;;;;;17.71;100.00;93422.25;2115013;28;20495;-82
2023/08/23 04:56:23;;;;;;;5.20;4.70;;;;;;;17.79;100.00;93425.41;2103449;28;20024;-83
2023/08/23 04:57:24;;;;;;;5.57;5.07;;;;;;;17.79;100.00;93422.72;2106418;28;20506;-82